createdAt,value
2023-05-12T00:00:00.365Z,84.29
2023-05-12T00:02:01.842Z,84.64
2023-05-12T00:04:03.724Z,84.68
2023-05-12T00:06:05.567Z,84.48
2023-05-12T00:08:07.420Z,83.50
2023-05-12T00:10:09.278Z,82.95
2023-05-12T00:12:11.649Z,81.45
2023-05-12T00:14:13.132Z,81.34
2023-05-12T00:16:15.823Z,79.98
2023-05-12T00:18:17.894Z,79.72
2023-05-12T00:20:19.800Z,79.19
2023-05-12T00:22:21.511Z,79.70
2023-05-12T00:24:23.052Z,80.27
2023-05-12T00:26:24.710Z,80.90
2023-05-12T00:28:26.203Z,81.53
2023-05-12T00:30:27.657Z,81.33
2023-05-12T00:32:29.481Z,80.85
2023-05-12T00:34:31.119Z,81.28
2023-05-12T00:36:32.613Z,82.66
2023-05-12T00:38:34.608Z,83.30
2023-05-12T00:40:36.438Z,84.68
2023-05-12T00:42:38.251Z,84.46
2023-05-12T00:44:39.807Z,84.48
2023-05-12T00:46:41.555Z,84.24
2023-05-12T00:48:44.246Z,84.03
2023-05-12T00:50:45.987Z,83.09
2023-05-12T00:52:48.894Z,83.24
2023-05-12T00:54:50.641Z,82.50
2023-05-12T00:56:52.405Z,82.76
2023-05-12T00:58:53.854Z,82.74
2023-05-12T01:00:56.278Z,81.78
2023-05-12T01:02:58.641Z,81.85
2023-05-12T01:05:00.506Z,81.36
2023-05-12T01:07:08.493Z,81.53
2023-05-12T01:09:10.279Z,81.88
2023-05-12T01:11:12.017Z,81.97
2023-05-12T01:13:13.528Z,81.39
2023-05-12T01:15:15.264Z,81.93
2023-05-12T01:17:20.609Z,81.95
2023-05-12T01:19:34.400Z,81.98
2023-05-12T01:21:36.147Z,82.07
2023-05-12T01:23:42.485Z,81.97
2023-05-12T01:25:46.480Z,82.07
2023-05-12T01:27:49.382Z,81.87
2023-05-12T01:29:52.312Z,82.07
2023-05-12T01:31:54.907Z,82.00
2023-05-12T01:33:56.477Z,81.98
2023-05-12T01:35:57.945Z,82.32
2023-05-12T01:37:59.392Z,82.73
2023-05-12T01:40:00.983Z,83.50
2023-05-12T01:42:03.784Z,85.44
2023-05-12T01:44:05.428Z,85.94
2023-05-12T01:46:06.893Z,85.86
2023-05-12T01:48:08.414Z,84.78
2023-05-12T01:50:10.510Z,83.59
2023-05-12T01:52:11.972Z,83.14
2023-05-12T01:54:13.770Z,83.36
2023-05-12T01:56:15.385Z,83.52
2023-05-12T01:58:16.882Z,84.27
2023-05-12T02:00:18.742Z,85.40
2023-05-12T02:02:20.531Z,86.20
2023-05-12T02:04:22.040Z,86.68
2023-05-12T02:06:23.790Z,86.72
2023-05-12T02:08:25.946Z,86.68
2023-05-12T02:10:27.783Z,85.75
2023-05-12T02:12:29.299Z,85.28
2023-05-12T02:14:30.857Z,84.68
2023-05-12T02:16:32.350Z,84.63
2023-05-12T02:18:33.880Z,84.71
2023-05-12T02:20:36.209Z,85.13
2023-05-12T02:22:37.691Z,84.97
2023-05-12T02:24:39.156Z,84.48
2023-05-12T02:26:40.637Z,84.13
2023-05-12T02:28:42.122Z,84.06
2023-05-12T02:30:50.252Z,84.18
2023-05-12T02:32:51.733Z,83.42
2023-05-12T02:34:53.342Z,83.52
2023-05-12T02:36:54.837Z,84.56
2023-05-12T02:38:56.308Z,84.53
2023-05-12T02:40:58.048Z,85.31
2023-05-12T02:42:59.501Z,86.71
2023-05-12T02:45:01.077Z,88.22
2023-05-12T02:47:02.620Z,88.50
2023-05-12T02:49:04.456Z,88.37
2023-05-12T02:51:05.972Z,87.73
2023-05-12T02:53:07.495Z,87.20
2023-05-12T02:55:09.185Z,87.00
2023-05-12T02:57:11.680Z,88.17
2023-05-12T02:59:13.197Z,89.36
2023-05-12T03:01:14.804Z,87.65
2023-05-12T03:03:16.384Z,88.05
2023-05-12T03:05:18.036Z,89.55
2023-05-12T03:07:19.545Z,91.34
2023-05-12T03:09:21.030Z,92.26
2023-05-12T03:11:22.808Z,92.43
2023-05-12T03:13:24.314Z,94.29
2023-05-12T03:15:25.790Z,95.81
2023-05-12T03:17:27.334Z,96.69
2023-05-12T03:19:28.907Z,97.29
2023-05-12T03:21:30.427Z,97.35
2023-05-12T03:23:31.956Z,97.47
2023-05-12T03:25:35.060Z,95.98
2023-05-12T03:27:36.820Z,95.35
2023-05-12T03:29:38.282Z,93.72
2023-05-12T03:31:40.060Z,93.43
2023-05-12T03:33:41.614Z,93.58
2023-05-12T03:35:43.091Z,93.43
2023-05-12T03:37:44.666Z,91.75
2023-05-12T03:39:46.168Z,90.62
2023-05-12T03:41:47.625Z,90.77
2023-05-12T03:43:49.341Z,90.42
2023-05-12T03:45:50.820Z,89.73
2023-05-12T03:47:52.505Z,89.71
2023-05-12T03:49:53.956Z,90.07
2023-05-12T03:51:55.448Z,91.06
2023-05-12T03:53:56.910Z,91.63
2023-05-12T03:56:03.483Z,89.17
2023-05-12T03:58:04.973Z,88.07
2023-05-12T04:00:07.251Z,88.30
2023-05-12T04:02:11.770Z,87.89
2023-05-12T04:04:13.329Z,86.10
2023-05-12T04:06:14.871Z,84.93
2023-05-12T04:08:16.319Z,84.38
2023-05-12T04:10:18.133Z,84.41
2023-05-12T04:12:19.819Z,82.82
2023-05-12T04:14:29.040Z,81.53
2023-05-12T04:16:37.177Z,80.66
2023-05-12T04:18:38.973Z,80.88
2023-05-12T04:20:40.680Z,82.04
2023-05-12T04:22:42.300Z,82.99
2023-05-12T04:24:43.754Z,83.03
2023-05-12T04:26:45.338Z,83.30
2023-05-12T04:28:47.794Z,82.78
2023-05-12T04:30:49.376Z,83.39
2023-05-12T04:32:50.900Z,82.32
2023-05-12T04:34:55.248Z,82.28
2023-05-12T04:36:57.015Z,83.25
2023-05-12T04:38:58.459Z,84.32
2023-05-12T04:41:00.688Z,84.81
2023-05-12T04:43:02.182Z,85.57
2023-05-12T04:45:03.937Z,86.09
2023-05-12T04:47:05.651Z,85.49
2023-05-12T04:49:07.161Z,85.29
2023-05-12T04:51:08.811Z,82.47
2023-05-12T04:53:11.469Z,81.93
2023-05-12T04:55:13.048Z,81.29
2023-05-12T04:57:14.617Z,80.73
2023-05-12T04:59:16.434Z,79.56
2023-05-12T05:01:18.247Z,81.13
2023-05-12T05:03:19.999Z,81.87
2023-05-12T05:05:21.914Z,83.27
2023-05-12T05:07:23.624Z,82.55
2023-05-12T05:09:25.085Z,82.12
2023-05-12T05:11:26.926Z,81.00
2023-05-12T05:13:28.382Z,81.63
2023-05-12T05:15:29.848Z,80.66
2023-05-12T05:17:31.329Z,80.61
2023-05-12T05:19:46.127Z,80.97
2023-05-12T05:21:53.938Z,81.79
2023-05-12T05:23:55.387Z,82.68
2023-05-12T05:25:56.855Z,82.25
2023-05-12T05:27:58.452Z,80.85
2023-05-12T05:29:59.987Z,77.75
2023-05-12T05:32:01.547Z,78.06
2023-05-12T05:34:03.172Z,79.69
2023-05-12T05:36:06.359Z,80.76
2023-05-12T05:38:07.825Z,81.45
2023-05-12T05:40:09.854Z,81.98
2023-05-12T05:42:11.399Z,83.79
2023-05-12T05:44:12.855Z,85.44
2023-05-12T05:46:14.348Z,85.71
2023-05-12T05:48:15.896Z,85.54
2023-05-12T05:50:17.455Z,80.61
2023-05-12T05:52:19.014Z,78.65
2023-05-12T05:54:22.954Z,76.81
2023-05-12T05:56:24.406Z,75.44
2023-05-12T05:58:25.870Z,76.25
2023-05-12T06:00:27.355Z,76.06
2023-05-12T06:02:28.886Z,76.79
2023-05-12T06:04:30.583Z,77.86
2023-05-12T06:06:32.656Z,78.53
2023-05-12T06:08:34.152Z,78.16
2023-05-12T06:10:35.599Z,75.27
2023-05-12T06:12:37.131Z,74.68
2023-05-12T06:14:38.583Z,74.67
2023-05-12T06:16:40.087Z,75.13
2023-05-12T06:18:41.611Z,74.65
2023-05-12T06:20:43.323Z,75.44
2023-05-12T06:22:44.784Z,74.89
2023-05-12T06:24:46.258Z,76.32
2023-05-12T06:26:47.768Z,78.88
2023-05-12T06:28:49.208Z,81.06
2023-05-12T06:30:50.694Z,81.42
2023-05-12T06:32:52.235Z,79.29
2023-05-12T06:34:53.802Z,78.54
2023-05-12T06:36:55.317Z,78.97
2023-05-12T06:38:57.279Z,80.59
2023-05-12T06:40:58.750Z,79.29
2023-05-12T06:43:00.338Z,77.15
2023-05-12T06:45:01.843Z,77.14
2023-05-12T06:47:03.504Z,74.80
2023-05-12T06:49:05.351Z,76.81
2023-05-12T06:51:07.408Z,79.73
2023-05-12T06:53:09.228Z,78.66
2023-05-12T06:55:10.804Z,77.48
2023-05-12T06:57:12.266Z,80.08
2023-05-12T06:59:14.206Z,80.30
2023-05-12T07:01:16.405Z,79.90
2023-05-12T07:03:17.936Z,80.59
2023-05-12T07:05:19.934Z,77.46
2023-05-12T07:07:21.698Z,76.50
2023-05-12T07:09:23.153Z,75.17
2023-05-12T07:11:24.629Z,74.79
2023-05-12T07:13:26.240Z,77.33
2023-05-12T07:15:27.713Z,76.66
2023-05-12T07:17:29.244Z,75.14
2023-05-12T07:19:30.797Z,74.75
2023-05-12T07:21:32.413Z,72.93
2023-05-12T07:23:34.866Z,72.10
2023-05-12T07:25:36.458Z,73.92
2023-05-12T07:27:37.960Z,74.66
2023-05-12T07:29:39.437Z,76.80
2023-05-12T07:31:41.070Z,76.22
2023-05-12T07:33:42.720Z,76.18
2023-05-12T07:35:44.663Z,74.60
2023-05-12T07:37:46.136Z,74.27
2023-05-12T07:39:47.609Z,73.93
2023-05-12T07:41:50.453Z,75.85
2023-05-12T07:43:52.138Z,74.51
2023-05-12T07:45:54.666Z,76.48
2023-05-12T07:47:56.173Z,76.75
2023-05-12T07:49:58.068Z,77.21
2023-05-12T07:51:59.596Z,77.76
2023-05-12T07:54:01.552Z,78.04
2023-05-12T07:56:03.070Z,78.61
2023-05-12T07:58:04.618Z,78.05
2023-05-12T08:00:06.756Z,76.23
2023-05-12T08:02:08.536Z,72.84
2023-05-12T08:04:10.301Z,72.80
2023-05-12T08:06:11.796Z,71.84
2023-05-12T08:08:16.679Z,71.05
2023-05-12T08:10:19.491Z,70.25
2023-05-12T08:12:21.327Z,71.63
2023-05-12T08:14:22.922Z,71.83
2023-05-12T08:16:24.450Z,70.25
2023-05-12T08:18:25.985Z,70.80
2023-05-12T08:20:27.502Z,71.26
2023-05-12T08:22:29.092Z,70.66
2023-05-12T08:24:30.668Z,67.91
2023-05-12T08:26:34.849Z,67.72
2023-05-12T08:28:36.343Z,68.00
2023-05-12T08:30:37.882Z,68.35
2023-05-12T08:32:39.609Z,70.10
2023-05-12T08:34:41.153Z,68.39
2023-05-12T08:36:42.974Z,68.61
2023-05-12T08:38:44.460Z,68.10
2023-05-12T08:41:23.113Z,68.94
2023-05-12T08:43:26.671Z,68.06
2023-05-12T08:45:29.552Z,68.37
2023-05-12T08:47:33.656Z,67.61
2023-05-12T08:49:36.366Z,68.09
2023-05-12T08:51:40.470Z,68.08
2023-05-12T08:53:42.503Z,67.78
2023-05-12T08:55:54.380Z,67.93
2023-05-12T08:58:03.773Z,68.43
2023-05-12T09:00:08.856Z,68.02
2023-05-12T09:02:11.283Z,67.33
2023-05-12T09:04:15.384Z,67.31
2023-05-12T09:06:17.597Z,67.33
2023-05-12T09:08:19.272Z,67.42
2023-05-12T09:10:34.258Z,67.13
2023-05-12T09:12:37.922Z,67.69
2023-05-12T09:14:40.717Z,67.82
2023-05-12T09:16:45.908Z,67.77
2023-05-12T09:18:51.745Z,67.91
2023-05-12T09:20:53.276Z,68.04
2023-05-12T09:22:56.732Z,67.52
2023-05-12T09:24:58.227Z,67.38
2023-05-12T09:26:59.757Z,66.82
2023-05-12T09:29:08.345Z,66.73
2023-05-12T09:31:20.854Z,66.47
2023-05-12T09:33:22.961Z,65.73
2023-05-12T09:35:25.612Z,65.77
2023-05-12T09:37:32.380Z,65.00
2023-05-12T09:39:34.095Z,64.40
2023-05-12T09:41:43.186Z,64.04
2023-05-12T09:43:46.100Z,64.46
2023-05-12T09:45:50.141Z,64.19
2023-05-12T09:47:51.731Z,64.38
2023-05-12T09:49:53.394Z,64.65
2023-05-12T09:52:01.522Z,64.91
2023-05-12T09:54:03.564Z,64.85
2023-05-12T09:56:06.259Z,65.05
2023-05-12T09:58:09.937Z,65.20
2023-05-12T10:00:31.385Z,65.34
2023-05-12T10:02:40.614Z,65.24
2023-05-12T10:04:47.660Z,65.04
2023-05-12T10:06:49.607Z,64.17
2023-05-12T10:08:56.448Z,64.69
2023-05-12T10:11:00.231Z,64.61
2023-05-12T10:13:01.806Z,64.46
2023-05-12T10:15:04.293Z,64.69
2023-05-12T10:17:07.190Z,65.28
2023-05-12T10:19:10.449Z,63.94
2023-05-12T10:21:12.961Z,66.15
2023-05-12T10:23:16.793Z,65.24
2023-05-12T10:25:18.614Z,65.95
2023-05-12T10:27:22.442Z,65.19
2023-05-12T10:29:32.751Z,63.66
2023-05-12T10:31:36.216Z,65.56
2023-05-12T10:33:37.765Z,66.01
2023-05-12T10:35:40.095Z,66.21
2023-05-12T10:37:42.948Z,66.69
2023-05-12T10:39:49.075Z,67.41
2023-05-12T10:42:01.559Z,67.36
2023-05-12T10:44:03.080Z,66.28
2023-05-12T10:46:10.417Z,65.22
2023-05-12T10:48:15.674Z,65.38
2023-05-12T10:50:27.389Z,64.07
2023-05-12T10:52:28.860Z,62.65
2023-05-12T10:54:39.474Z,60.81
2023-05-12T10:56:45.094Z,58.37
2023-05-12T10:59:32.302Z,56.93
2023-05-12T11:01:34.763Z,55.86
2023-05-12T11:03:38.246Z,55.62
2023-05-12T11:05:40.354Z,56.28
2023-05-12T11:07:47.923Z,54.33
2023-05-12T11:09:58.514Z,57.01
2023-05-12T11:12:02.119Z,57.24
2023-05-12T11:14:04.397Z,56.91
2023-05-12T11:16:06.131Z,55.64
2023-05-12T11:18:08.412Z,57.99
2023-05-12T11:20:10.798Z,57.26
2023-05-12T11:22:12.984Z,56.69
2023-05-12T11:24:16.610Z,58.49
2023-05-12T11:26:18.760Z,56.94
2023-05-12T11:28:20.291Z,53.45
2023-05-12T11:30:22.303Z,51.75
2023-05-12T11:32:23.828Z,52.12
2023-05-12T11:34:27.152Z,51.55
2023-05-12T11:36:28.790Z,50.78
2023-05-12T11:38:30.346Z,48.77
2023-05-12T11:40:31.799Z,47.52
2023-05-12T11:42:33.475Z,48.50
2023-05-12T11:44:35.821Z,49.41
2023-05-12T11:46:37.317Z,47.41
2023-05-12T11:48:38.763Z,46.57
2023-05-12T11:50:48.659Z,48.17
2023-05-12T11:52:51.596Z,49.19
2023-05-12T11:54:58.026Z,49.36
2023-05-12T11:57:01.240Z,48.14
2023-05-12T11:59:02.868Z,50.51
2023-05-12T12:01:13.818Z,51.91
2023-05-12T12:03:16.736Z,52.61
2023-05-12T12:05:21.040Z,52.39
2023-05-12T12:07:30.229Z,51.07
2023-05-12T12:09:40.688Z,52.16
2023-05-12T12:11:42.168Z,48.18
2023-05-12T12:13:56.426Z,51.23
2023-05-12T12:15:58.008Z,53.24
2023-05-12T12:17:59.900Z,55.79
2023-05-12T12:20:01.617Z,55.23
2023-05-12T12:22:03.140Z,55.16
2023-05-12T12:24:06.146Z,56.71
2023-05-12T12:26:07.986Z,58.15
2023-05-12T12:28:09.496Z,57.71
2023-05-12T12:30:11.701Z,57.45
2023-05-12T12:32:13.271Z,57.94
2023-05-12T12:34:14.749Z,57.57
2023-05-12T12:36:16.211Z,58.86
2023-05-12T12:38:17.740Z,57.63
2023-05-12T12:40:20.151Z,56.76
2023-05-12T12:42:22.277Z,55.78
2023-05-12T12:44:23.754Z,54.94
2023-05-12T12:46:25.694Z,54.93
2023-05-12T12:48:28.533Z,55.60
2023-05-12T12:50:30.386Z,54.08
2023-05-12T12:52:32.752Z,56.10
2023-05-12T12:54:34.545Z,56.16
2023-05-12T12:56:36.079Z,58.52
2023-05-12T12:58:37.536Z,57.80
2023-05-12T13:00:39.102Z,56.25
2023-05-12T13:02:40.691Z,56.56
2023-05-12T13:04:42.295Z,56.20
2023-05-12T13:06:43.772Z,58.05
2023-05-12T13:08:45.307Z,57.26
2023-05-12T13:10:46.881Z,59.04
2023-05-12T13:12:48.401Z,58.12
2023-05-12T13:14:49.872Z,58.59
2023-05-12T13:16:52.843Z,57.87
2023-05-12T13:18:54.477Z,57.41
2023-05-12T13:20:56.000Z,55.41
2023-05-12T13:22:57.505Z,56.32
2023-05-12T13:24:59.000Z,53.74
2023-05-12T13:27:00.599Z,52.31
2023-05-12T13:29:02.127Z,54.27
2023-05-12T13:31:03.728Z,54.21
2023-05-12T13:33:06.240Z,57.57
2023-05-12T13:35:08.855Z,58.77
2023-05-12T13:37:10.390Z,58.80
2023-05-12T13:39:12.683Z,60.44
2023-05-12T13:41:14.215Z,59.53
2023-05-12T13:43:15.766Z,58.12
2023-05-12T13:45:18.368Z,59.58
2023-05-12T13:47:21.098Z,56.84
2023-05-12T13:49:22.550Z,58.84
2023-05-12T13:51:24.097Z,59.78
2023-05-12T13:53:25.837Z,60.52
2023-05-12T13:55:27.600Z,58.63
2023-05-12T13:57:29.180Z,58.82
2023-05-12T13:59:31.417Z,58.14
2023-05-12T14:01:32.963Z,58.85
2023-05-12T14:03:34.877Z,59.62
2023-05-12T14:05:36.421Z,59.99
2023-05-12T14:07:38.025Z,59.15
2023-05-12T14:09:39.502Z,58.53
2023-05-12T14:11:41.088Z,59.51
2023-05-12T14:13:42.841Z,58.79
2023-05-12T14:15:49.305Z,61.26
2023-05-12T14:17:51.513Z,60.29
2023-05-12T14:19:53.048Z,61.22
2023-05-12T14:21:54.588Z,60.29
2023-05-12T14:23:56.071Z,60.09
2023-05-12T14:25:57.948Z,59.32
2023-05-12T14:27:59.475Z,58.88
2023-05-12T14:30:00.983Z,58.13
2023-05-12T14:32:04.318Z,56.42
2023-05-12T14:34:05.907Z,57.80
2023-05-12T14:36:08.831Z,58.38
2023-05-12T14:38:10.655Z,59.42
2023-05-12T14:40:12.803Z,59.72
2023-05-12T14:42:14.269Z,60.58
2023-05-12T14:44:16.012Z,59.39
2023-05-12T14:46:17.584Z,58.66
2023-05-12T14:48:19.269Z,60.46
2023-05-12T14:50:20.849Z,59.65
2023-05-12T14:52:22.433Z,60.44
2023-05-12T14:54:25.892Z,61.79
2023-05-12T14:56:27.794Z,60.75
2023-05-12T14:58:29.322Z,59.32
2023-05-12T15:00:30.963Z,59.14
2023-05-12T15:02:34.130Z,58.17
2023-05-12T15:04:35.725Z,59.32
2023-05-12T15:06:38.093Z,57.42
2023-05-12T15:08:39.591Z,57.26
2023-05-12T15:10:41.053Z,57.30
2023-05-12T15:12:42.564Z,58.54
2023-05-12T15:14:44.106Z,58.92
2023-05-12T15:16:46.152Z,59.94
2023-05-12T15:18:47.755Z,60.00
2023-05-12T15:20:49.240Z,59.16
2023-05-12T15:22:50.832Z,60.17
2023-05-12T15:24:52.355Z,59.48
2023-05-12T15:26:53.865Z,59.40
2023-05-12T15:28:56.069Z,58.46
2023-05-12T15:30:57.806Z,58.16
2023-05-12T15:32:59.686Z,58.85
2023-05-12T15:35:01.357Z,60.11
2023-05-12T15:37:02.940Z,59.20
2023-05-12T15:39:05.153Z,58.81
2023-05-12T15:41:06.646Z,59.33
2023-05-12T15:43:08.476Z,58.28
2023-05-12T15:45:10.493Z,60.58
2023-05-12T15:47:12.242Z,59.00
2023-05-12T15:49:14.305Z,58.22
2023-05-12T15:51:15.829Z,58.21
2023-05-12T15:53:17.330Z,57.36
2023-05-12T15:55:19.254Z,57.74
2023-05-12T15:57:21.019Z,57.62
2023-05-12T15:59:22.751Z,57.17
2023-05-12T16:01:25.067Z,57.65
2023-05-12T16:03:27.244Z,56.87
2023-05-12T16:05:29.400Z,58.64
2023-05-12T16:07:31.203Z,58.24
2023-05-12T16:09:32.697Z,59.62
2023-05-12T16:11:34.431Z,60.83
2023-05-12T16:13:35.965Z,60.22
2023-05-12T16:15:37.575Z,61.25
2023-05-12T16:17:39.113Z,61.57
2023-05-12T16:19:40.630Z,61.34
2023-05-12T16:21:42.970Z,62.07
2023-05-12T16:23:44.444Z,60.43
2023-05-12T16:25:45.905Z,61.36
2023-05-12T16:27:47.384Z,59.64
2023-05-12T16:29:50.404Z,60.35
2023-05-12T16:31:52.102Z,59.47
2023-05-12T16:33:53.802Z,59.51
2023-05-12T16:35:55.388Z,58.63
2023-05-12T16:37:57.171Z,58.49
2023-05-12T16:39:58.900Z,59.06
2023-05-12T16:42:00.476Z,57.96
2023-05-12T16:44:02.204Z,59.01
2023-05-12T16:46:04.216Z,57.63
2023-05-12T16:48:06.338Z,57.16
2023-05-12T16:50:08.477Z,57.03
2023-05-12T16:52:11.937Z,57.24
2023-05-12T16:54:13.898Z,55.61
2023-05-12T16:56:15.372Z,53.44
2023-05-12T16:58:16.955Z,55.27
2023-05-12T17:00:18.852Z,55.17
2023-05-12T17:02:20.488Z,56.37
2023-05-12T17:04:22.090Z,56.85
2023-05-12T17:06:23.653Z,58.60
2023-05-12T17:08:25.221Z,56.79
2023-05-12T17:10:26.814Z,58.46
2023-05-12T17:12:28.356Z,55.85
2023-05-12T17:14:30.353Z,58.02
2023-05-12T17:16:31.972Z,57.20
2023-05-12T17:20:54.900Z,58.18
2023-05-12T17:22:57.017Z,57.91
2023-05-12T17:24:58.523Z,58.96
2023-05-12T17:27:00.414Z,58.42
2023-05-12T17:29:02.451Z,60.15
2023-05-12T17:31:04.395Z,58.20
2023-05-12T17:33:07.662Z,58.77
2023-05-12T17:35:10.017Z,60.08
2023-05-12T17:37:11.849Z,59.21
2023-05-12T17:39:15.890Z,59.35
2023-05-12T17:41:18.264Z,61.23
2023-05-12T17:43:21.355Z,60.95
2023-05-12T17:45:23.265Z,59.51
2023-05-12T17:47:26.014Z,60.57
2023-05-12T17:49:27.704Z,59.78
2023-05-12T17:51:29.957Z,60.72
2023-05-12T17:53:32.364Z,61.01
2023-05-12T17:55:33.827Z,60.83
2023-05-12T17:57:35.320Z,60.19
2023-05-12T17:59:36.895Z,60.57
2023-05-12T18:01:38.589Z,61.16
2023-05-12T18:03:40.353Z,61.42
2023-05-12T18:05:42.197Z,60.53
2023-05-12T18:07:43.673Z,61.46
2023-05-12T18:09:45.649Z,61.68
2023-05-12T18:11:50.058Z,60.72
2023-05-12T18:13:53.700Z,61.64
2023-05-12T18:15:55.184Z,61.53
2023-05-12T18:17:57.914Z,62.28
2023-05-12T18:19:59.507Z,61.42
2023-05-12T18:22:01.300Z,61.70
2023-05-12T18:24:02.892Z,62.54
2023-05-12T18:26:04.364Z,62.69
2023-05-12T18:28:07.435Z,62.47
2023-05-12T18:30:09.520Z,62.92
2023-05-12T18:32:10.988Z,63.65
2023-05-12T18:34:12.455Z,64.20
2023-05-12T18:36:16.079Z,64.17
2023-05-12T18:38:18.083Z,64.26
2023-05-12T18:40:19.755Z,64.88
2023-05-12T18:42:21.268Z,64.71
2023-05-12T18:44:23.013Z,64.65
2023-05-12T18:46:24.526Z,64.92
2023-05-12T18:48:26.028Z,65.60
2023-05-12T18:50:27.696Z,65.08
2023-05-12T18:52:29.167Z,66.13
2023-05-12T18:54:30.690Z,66.02
2023-05-12T18:56:32.217Z,66.27
2023-05-12T18:58:33.720Z,65.90
2023-05-12T19:00:35.634Z,66.42
2023-05-12T19:02:37.481Z,65.92
2023-05-12T19:04:39.271Z,66.53
2023-05-12T19:06:40.868Z,66.67
2023-05-12T19:08:42.328Z,66.74
2023-05-12T19:10:43.898Z,67.05
2023-05-12T19:12:45.412Z,66.96
2023-05-12T19:14:46.942Z,67.18
2023-05-12T19:16:48.593Z,67.25
2023-05-12T19:18:50.523Z,67.17
2023-05-12T19:20:52.152Z,67.22
2023-05-12T19:22:53.714Z,67.57
2023-05-12T19:24:55.809Z,67.27
2023-05-12T19:26:57.617Z,67.68
2023-05-12T19:29:00.484Z,67.75
2023-05-12T19:31:02.076Z,67.83
2023-05-12T19:33:03.690Z,67.47
2023-05-12T19:35:06.741Z,67.55
2023-05-12T19:37:08.277Z,67.98
2023-05-12T19:39:09.822Z,68.22
2023-05-12T19:41:11.581Z,68.17
2023-05-12T19:43:13.093Z,68.15
2023-05-12T19:45:15.602Z,68.56
2023-05-12T19:47:17.315Z,68.51
2023-05-12T19:49:18.804Z,68.87
2023-05-12T19:51:20.413Z,68.50
2023-05-12T19:53:21.907Z,68.87
2023-05-12T19:55:23.607Z,68.92
2023-05-12T19:57:25.341Z,68.85
2023-05-12T19:59:26.923Z,68.76
2023-05-12T20:01:28.694Z,68.76
2023-05-12T20:03:31.221Z,68.71
2023-05-12T20:05:36.611Z,68.78
2023-05-12T20:07:39.011Z,68.88
2023-05-12T20:09:40.577Z,69.13
2023-05-12T20:11:42.126Z,69.36
2023-05-12T20:13:43.671Z,69.17
2023-05-12T20:15:45.394Z,69.48
2023-05-12T20:17:46.956Z,69.26
2023-05-12T20:19:48.515Z,69.46
2023-05-12T20:21:49.976Z,70.07
2023-05-12T20:23:51.546Z,69.49
2023-05-12T20:25:53.339Z,69.44
2023-05-12T20:27:55.630Z,69.19
2023-05-12T20:29:57.164Z,69.68
2023-05-12T20:31:58.904Z,69.44
2023-05-12T20:34:00.364Z,69.39
2023-05-12T20:36:01.865Z,69.34
2023-05-12T20:38:03.312Z,69.44
2023-05-12T20:40:07.078Z,69.07
2023-05-12T20:42:11.134Z,69.45
2023-05-12T20:44:12.652Z,69.62
2023-05-12T20:46:14.256Z,69.49
2023-05-12T20:48:15.913Z,69.54
2023-05-12T20:50:17.571Z,69.97
2023-05-12T20:52:19.148Z,69.90
2023-05-12T20:54:20.663Z,70.11
2023-05-12T20:56:26.456Z,70.36
2023-05-12T20:58:27.992Z,70.20
2023-05-12T21:00:29.484Z,70.20
2023-05-12T21:02:31.083Z,70.17
2023-05-12T21:04:32.749Z,70.37
2023-05-12T21:06:35.913Z,71.10
2023-05-12T21:08:37.751Z,70.33
2023-05-12T21:10:40.123Z,70.93
2023-05-12T21:12:41.701Z,70.84
2023-05-12T21:14:45.178Z,70.81
2023-05-12T21:16:46.768Z,71.21
2023-05-12T21:18:48.391Z,70.88
2023-05-12T21:20:50.039Z,71.05
2023-05-12T21:22:51.529Z,70.87
2023-05-12T21:24:53.102Z,71.02
2023-05-12T21:26:54.611Z,70.99
2023-05-12T21:28:56.238Z,71.04
2023-05-12T21:30:57.715Z,71.06
2023-05-12T21:32:59.350Z,71.37
2023-05-12T21:35:00.849Z,71.12
2023-05-12T21:37:02.394Z,71.04
2023-05-12T21:39:03.996Z,71.04
2023-05-12T21:41:05.513Z,70.94
2023-05-12T21:43:07.073Z,70.83
2023-05-12T21:45:09.167Z,71.05
2023-05-12T21:47:10.728Z,71.01
2023-05-12T21:49:12.214Z,70.91
2023-05-12T21:51:14.138Z,70.94
2023-05-12T21:53:15.619Z,71.18
2023-05-12T21:55:17.133Z,71.02
2023-05-12T21:57:18.610Z,70.83
2023-05-12T21:59:20.702Z,71.11
2023-05-12T22:01:22.292Z,71.14
2023-05-12T22:03:25.335Z,71.03
2023-05-12T22:05:26.876Z,71.29
2023-05-12T22:07:29.416Z,71.03
2023-05-12T22:09:31.369Z,71.26
2023-05-12T22:11:33.412Z,71.25
2023-05-12T22:13:34.991Z,71.12
2023-05-12T22:15:36.590Z,71.36
2023-05-12T22:17:38.104Z,71.17
2023-05-12T22:19:39.623Z,71.20
2023-05-12T22:21:41.179Z,71.27
2023-05-12T22:23:42.780Z,71.42
2023-05-12T22:25:44.267Z,71.25
2023-05-12T22:27:45.798Z,71.53
2023-05-12T22:29:47.369Z,71.28
2023-05-12T22:31:49.034Z,71.22
2023-05-12T22:33:50.961Z,71.41
2023-05-12T22:35:52.476Z,71.30
2023-05-12T22:37:54.712Z,71.31
2023-05-12T22:39:56.180Z,71.52
2023-05-12T22:41:57.662Z,71.67
2023-05-12T22:43:59.242Z,71.72
2023-05-12T22:46:00.838Z,71.58
2023-05-12T22:48:02.499Z,71.56
2023-05-12T22:50:04.277Z,71.52
2023-05-12T22:52:06.120Z,71.69
2023-05-12T22:54:07.857Z,71.43
2023-05-12T22:56:09.383Z,71.42
2023-05-12T22:58:11.653Z,71.55
2023-05-12T23:00:13.767Z,71.73
2023-05-12T23:02:15.620Z,71.26
2023-05-12T23:04:17.231Z,71.44
2023-05-12T23:06:19.004Z,71.41
2023-05-12T23:08:20.722Z,71.51
2023-05-12T23:10:22.322Z,71.42
2023-05-12T23:12:23.982Z,71.41
2023-05-12T23:14:25.476Z,71.18
2023-05-12T23:16:27.199Z,71.40
2023-05-12T23:18:28.727Z,71.65
2023-05-12T23:20:30.340Z,71.63
2023-05-12T23:22:31.822Z,71.37
2023-05-12T23:24:34.116Z,72.13
2023-05-12T23:26:35.596Z,72.44
2023-05-12T23:28:37.127Z,72.06
2023-05-12T23:30:38.573Z,72.07
2023-05-12T23:32:40.262Z,72.05
2023-05-12T23:34:41.843Z,71.91
2023-05-12T23:36:43.321Z,71.87
2023-05-12T23:38:44.983Z,71.90
2023-05-12T23:40:46.501Z,71.95
2023-05-12T23:42:47.982Z,72.31
2023-05-12T23:44:49.461Z,72.32
2023-05-12T23:46:51.032Z,72.45
2023-05-12T23:48:52.581Z,72.55
2023-05-12T23:50:54.295Z,72.25
2023-05-12T23:52:56.473Z,72.76
2023-05-12T23:54:57.981Z,72.97
2023-05-12T23:56:59.461Z,72.42
2023-05-12T23:59:00.924Z,72.15
